createdAt,value
2022-11-17T00:02:23.655Z,12.52
2022-11-17T00:04:50.486Z,12.68
2022-11-17T00:07:17.360Z,11.80
2022-11-17T00:09:44.158Z,12.15
2022-11-17T00:12:32.801Z,13.05
2022-11-17T00:15:00.218Z,12.05
2022-11-17T00:17:27.559Z,12.75
2022-11-17T00:20:13.122Z,12.93
2022-11-17T00:22:39.958Z,11.75
2022-11-17T00:25:06.986Z,12.05
2022-11-17T00:27:33.790Z,12.60
2022-11-17T00:30:00.652Z,11.80
2022-11-17T00:32:46.365Z,12.83
2022-11-17T00:35:13.396Z,12.50
2022-11-17T00:38:04.220Z,11.93
2022-11-17T00:40:31.113Z,11.45
2022-11-17T00:42:57.963Z,11.93
2022-11-17T00:45:24.764Z,12.60
2022-11-17T00:47:51.529Z,12.88
2022-11-17T00:50:18.352Z,11.85
2022-11-17T00:52:45.208Z,12.68
2022-11-17T00:55:12.079Z,12.57
2022-11-17T00:57:38.894Z,12.60
2022-11-17T01:00:06.560Z,12.90
2022-11-17T01:02:33.536Z,12.13
2022-11-17T01:05:00.400Z,11.93
2022-11-17T01:07:27.305Z,11.90
2022-11-17T01:09:54.259Z,11.20
2022-11-17T01:12:21.093Z,10.55
2022-11-17T01:14:47.829Z,11.38
2022-11-17T01:17:14.620Z,11.60
2022-11-17T01:19:41.357Z,10.88
2022-11-17T01:22:08.208Z,11.70
2022-11-17T01:24:35.027Z,11.88
2022-11-17T01:27:02.118Z,12.55
2022-11-17T01:29:29.012Z,12.85
2022-11-17T01:31:55.808Z,11.18
2022-11-17T01:34:22.686Z,13.30
2022-11-17T01:37:08.300Z,10.50
2022-11-17T01:39:35.247Z,11.65
2022-11-17T01:42:18.307Z,12.00
2022-11-17T01:44:57.269Z,12.18
2022-11-17T01:47:42.585Z,11.60
2022-11-17T01:50:30.139Z,11.50
2022-11-17T01:53:00.444Z,11.32
2022-11-17T01:55:37.139Z,12.18
2022-11-17T01:58:34.987Z,11.55
2022-11-17T02:01:02.327Z,11.97
2022-11-17T02:03:34.718Z,13.10
2022-11-17T02:06:08.544Z,12.50
2022-11-17T02:08:38.834Z,11.40
2022-11-17T02:11:36.249Z,12.40
2022-11-17T02:14:05.321Z,13.83
2022-11-17T02:16:32.166Z,12.07
2022-11-17T02:18:59.007Z,13.18
2022-11-17T02:21:47.520Z,12.10
2022-11-17T02:24:33.308Z,13.43
2022-11-17T02:27:25.016Z,12.27
2022-11-17T02:30:06.438Z,12.50
2022-11-17T02:32:50.759Z,13.07
2022-11-17T02:35:35.916Z,13.00
2022-11-17T02:38:12.657Z,12.88
2022-11-17T02:41:05.303Z,12.57
2022-11-17T02:44:00.043Z,12.80
2022-11-17T02:46:30.716Z,11.90
2022-11-17T02:49:02.747Z,12.90
2022-11-17T02:51:31.069Z,12.93
2022-11-17T02:54:00.160Z,12.83
2022-11-17T02:56:27.035Z,12.73
2022-11-17T02:59:00.252Z,12.70
2022-11-17T03:01:43.305Z,13.05
2022-11-17T03:04:32.269Z,12.88
2022-11-17T03:07:16.083Z,13.27
2022-11-17T03:10:21.845Z,11.45
2022-11-17T03:13:11.915Z,12.95
2022-11-17T03:15:55.405Z,12.43
2022-11-17T03:18:35.407Z,12.52
2022-11-17T03:21:20.208Z,13.00
2022-11-17T03:24:08.972Z,12.45
2022-11-17T03:26:41.110Z,12.35
2022-11-17T03:29:12.582Z,13.48
2022-11-17T03:31:41.662Z,13.00
2022-11-17T03:34:14.189Z,13.07
2022-11-17T03:36:47.191Z,12.27
2022-11-17T03:39:25.859Z,12.20
2022-11-17T03:41:59.644Z,12.60
2022-11-17T03:44:31.302Z,12.85
2022-11-17T03:49:57.635Z,13.77
2022-11-17T03:52:25.294Z,12.80
2022-11-17T03:54:53.255Z,13.07
2022-11-17T03:57:26.689Z,12.25
2022-11-17T04:00:04.431Z,13.17
2022-11-17T04:02:31.597Z,13.30
2022-11-17T04:05:07.500Z,14.23
2022-11-17T04:07:45.368Z,13.02
2022-11-17T04:10:20.860Z,13.98
2022-11-17T04:13:07.616Z,13.73
2022-11-17T04:15:53.092Z,12.55
2022-11-17T04:18:20.956Z,12.90
2022-11-17T04:20:53.221Z,13.05
2022-11-17T04:23:20.744Z,12.77
2022-11-17T04:26:08.545Z,13.13
2022-11-17T04:28:37.497Z,13.23
2022-11-17T04:31:08.859Z,13.57
2022-11-17T04:33:39.248Z,13.43
2022-11-17T04:36:07.362Z,13.15
2022-11-17T04:38:35.085Z,13.30
2022-11-17T04:41:23.109Z,12.95
2022-11-17T04:43:50.441Z,12.82
2022-11-17T04:46:18.612Z,12.63
2022-11-17T04:48:46.474Z,13.50
2022-11-17T04:51:14.215Z,13.30
2022-11-17T04:53:41.513Z,13.60
2022-11-17T04:56:08.627Z,13.82
2022-11-17T04:58:35.758Z,11.75
2022-11-17T05:01:15.926Z,12.02
2022-11-17T05:03:46.167Z,12.30
2022-11-17T05:06:15.853Z,12.32
2022-11-17T05:08:44.054Z,11.25
2022-11-17T05:11:32.020Z,11.93
2022-11-17T05:13:59.375Z,11.65
2022-11-17T05:16:45.024Z,11.83
2022-11-17T05:19:20.234Z,12.27
2022-11-17T05:21:47.313Z,12.73
2022-11-17T05:24:14.826Z,12.00
2022-11-17T05:26:43.254Z,12.63
2022-11-17T05:29:12.807Z,12.30
2022-11-17T05:31:40.242Z,12.00
2022-11-17T05:34:08.616Z,13.02
2022-11-17T05:36:36.176Z,12.73
2022-11-17T05:39:03.836Z,12.02
2022-11-17T05:41:31.147Z,12.37
2022-11-17T05:43:59.128Z,12.23
2022-11-17T05:46:26.839Z,12.90
2022-11-17T05:48:54.191Z,12.37
2022-11-17T05:51:23.709Z,12.52
2022-11-17T05:53:51.114Z,12.27
2022-11-17T05:56:35.874Z,11.70
2022-11-17T05:59:15.914Z,12.68
2022-11-17T06:01:49.204Z,12.80
2022-11-17T06:04:19.556Z,12.75
2022-11-17T06:06:47.705Z,15.93
2022-11-17T06:09:15.131Z,13.45
2022-11-17T06:11:41.980Z,25.77
2022-11-17T06:14:08.952Z,19.27
2022-11-17T06:16:40.804Z,14.60
2022-11-17T06:19:18.008Z,17.13
2022-11-17T06:22:10.473Z,16.35
2022-11-17T06:24:33.350Z,14.35
2022-11-17T06:27:00.850Z,14.55
2022-11-17T06:29:29.567Z,13.85
2022-11-17T06:31:58.199Z,14.00
2022-11-17T06:34:26.757Z,14.52
2022-11-17T06:36:53.727Z,13.88
2022-11-17T06:39:20.650Z,13.65
2022-11-17T06:41:47.530Z,13.80
2022-11-17T06:44:14.287Z,13.57
2022-11-17T06:46:44.798Z,14.90
2022-11-17T06:49:14.550Z,13.73
2022-11-17T06:51:45.845Z,13.15
2022-11-17T06:54:14.851Z,13.40
2022-11-17T06:56:42.626Z,12.37
2022-11-17T06:59:09.563Z,13.20
2022-11-17T07:01:37.764Z,13.23
2022-11-17T07:04:04.824Z,13.62
2022-11-17T07:06:32.244Z,13.57
2022-11-17T07:08:59.147Z,14.03
2022-11-17T07:11:26.028Z,14.15
2022-11-17T07:13:52.961Z,14.38
2022-11-17T07:16:23.969Z,14.18
2022-11-17T07:18:53.051Z,13.93
2022-11-17T07:21:22.424Z,15.03
2022-11-17T07:23:49.309Z,14.27
2022-11-17T07:26:16.217Z,14.18
2022-11-17T07:28:43.836Z,12.73
2022-11-17T07:31:10.739Z,12.40
2022-11-17T07:33:37.621Z,11.93
2022-11-17T07:36:10.032Z,11.12
2022-11-17T07:38:39.170Z,10.50
2022-11-17T07:41:08.870Z,10.30
2022-11-17T07:43:36.714Z,9.73
2022-11-17T07:46:08.501Z,10.00
2022-11-17T07:48:35.657Z,11.38
2022-11-17T07:51:04.361Z,13.02
2022-11-17T07:53:33.368Z,13.05
2022-11-17T07:56:08.901Z,12.90
2022-11-17T07:58:36.818Z,11.23
2022-11-17T08:01:15.615Z,9.48
2022-11-17T08:03:43.409Z,9.55
2022-11-17T08:06:10.429Z,7.80
2022-11-17T08:08:38.622Z,8.75
2022-11-17T08:11:10.900Z,7.93
2022-11-17T08:13:39.617Z,8.90
2022-11-17T08:16:07.530Z,7.78
2022-11-17T08:18:35.173Z,8.32
2022-11-17T08:21:04.498Z,8.10
2022-11-17T08:23:31.379Z,8.00
2022-11-17T08:25:58.624Z,7.75
2022-11-17T08:28:26.270Z,7.85
2022-11-17T08:30:53.222Z,8.02
2022-11-17T08:33:20.067Z,7.70
2022-11-17T08:35:46.882Z,7.90
2022-11-17T08:38:15.559Z,7.95
2022-11-17T08:40:42.379Z,7.95
2022-11-17T08:43:09.192Z,7.50
2022-11-17T08:45:35.952Z,8.15
2022-11-17T08:48:04.189Z,8.17
2022-11-17T08:50:31.109Z,8.63
2022-11-17T08:52:57.866Z,9.13
2022-11-17T08:55:26.261Z,9.13
2022-11-17T08:57:53.304Z,8.73
2022-11-17T09:00:21.856Z,8.50
2022-11-17T09:02:48.794Z,7.97
2022-11-17T09:05:15.572Z,7.95
2022-11-17T09:07:42.407Z,8.38
2022-11-17T09:10:11.149Z,8.15
2022-11-17T09:12:38.216Z,7.77
2022-11-17T09:15:05.688Z,8.30
2022-11-17T09:17:32.789Z,8.00
2022-11-17T09:19:59.748Z,7.60
2022-11-17T09:22:26.570Z,7.65
2022-11-17T09:24:53.478Z,6.97
2022-11-17T09:27:20.282Z,6.68
2022-11-17T09:29:47.993Z,8.30
2022-11-17T09:32:16.872Z,8.15
2022-11-17T09:34:43.970Z,7.62
2022-11-17T09:37:10.754Z,7.23
2022-11-17T09:39:37.580Z,7.65
2022-11-17T09:42:04.642Z,8.70
2022-11-17T09:44:31.326Z,10.80
2022-11-17T09:47:15.277Z,7.28
2022-11-17T09:49:58.116Z,7.73
2022-11-17T09:52:28.505Z,6.95
2022-11-17T09:54:58.350Z,7.15
2022-11-17T09:57:31.159Z,6.62
2022-11-17T10:00:27.661Z,6.55
2022-11-17T10:02:55.556Z,7.27
2022-11-17T10:05:29.737Z,7.10
2022-11-17T10:08:03.528Z,7.10
2022-11-17T10:10:45.019Z,6.47
2022-11-17T10:13:23.739Z,6.25
2022-11-17T10:15:55.773Z,6.87
2022-11-17T10:18:22.773Z,5.85
2022-11-17T10:20:51.324Z,5.72
2022-11-17T10:23:20.284Z,5.85
2022-11-17T10:25:58.151Z,5.97
2022-11-17T10:28:30.899Z,5.67
2022-11-17T10:31:01.853Z,5.55
2022-11-17T10:33:49.995Z,5.03
2022-11-17T10:36:29.935Z,5.18
2022-11-17T10:38:59.752Z,5.30
2022-11-17T10:41:39.222Z,5.90
2022-11-17T10:44:16.547Z,5.10
2022-11-17T10:47:04.352Z,5.10
2022-11-17T10:49:34.792Z,5.07
2022-11-17T10:52:05.640Z,4.43
2022-11-17T10:54:32.495Z,4.67
2022-11-17T10:57:00.647Z,4.70
2022-11-17T10:59:33.159Z,4.43
2022-11-17T11:02:25.741Z,4.43
2022-11-17T11:05:17.102Z,4.75
2022-11-17T11:07:44.609Z,4.40
2022-11-17T11:10:14.706Z,4.87
2022-11-17T11:13:02.850Z,4.45
2022-11-17T11:15:36.137Z,4.78
2022-11-17T11:18:12.413Z,4.28
2022-11-17T11:21:34.559Z,5.23
2022-11-17T11:24:10.471Z,4.37
2022-11-17T11:27:04.961Z,4.43
2022-11-17T11:29:51.034Z,4.25
2022-11-17T11:32:25.350Z,4.60
2022-11-17T11:35:04.247Z,4.50
2022-11-17T11:37:41.527Z,4.45
2022-11-17T11:40:22.253Z,4.07
2022-11-17T11:43:06.414Z,4.87
2022-11-17T11:45:53.597Z,4.28
2022-11-17T11:48:27.677Z,4.43
2022-11-17T11:51:02.107Z,4.20
2022-11-17T11:53:37.688Z,4.55
2022-11-17T11:56:27.545Z,4.20
2022-11-17T11:59:02.206Z,4.25
2022-11-17T12:01:41.472Z,4.27
2022-11-17T12:04:25.538Z,4.47
2022-11-17T12:07:21.288Z,4.62
2022-11-17T12:10:35.119Z,4.45
2022-11-17T12:13:04.447Z,4.45
2022-11-17T12:15:35.856Z,4.57
2022-11-17T12:18:19.445Z,3.95
2022-11-17T12:21:13.944Z,4.93
2022-11-17T12:24:23.584Z,4.12
2022-11-17T12:26:50.448Z,5.37
2022-11-17T12:29:20.181Z,5.13
2022-11-17T12:31:48.997Z,5.43
2022-11-17T12:34:20.977Z,9.63
2022-11-17T12:37:06.346Z,7.37
2022-11-17T12:39:51.604Z,7.00
2022-11-17T12:42:18.495Z,5.30
2022-11-17T12:44:50.039Z,3.60
2022-11-17T12:47:18.296Z,3.60
2022-11-17T12:49:53.334Z,3.62
2022-11-17T12:52:45.338Z,3.53
2022-11-17T12:55:39.898Z,3.00
2022-11-17T12:58:15.447Z,2.92
2022-11-17T13:01:09.020Z,3.17
2022-11-17T13:03:45.058Z,3.00
2022-11-17T13:09:12.313Z,2.90
2022-11-17T13:11:39.141Z,3.50
2022-11-17T13:14:17.064Z,3.12
2022-11-17T13:16:50.059Z,3.37
2022-11-17T13:19:34.381Z,3.60
2022-11-17T13:22:06.609Z,3.73
2022-11-17T13:24:36.180Z,2.85
2022-11-17T13:27:09.508Z,3.17
2022-11-17T13:29:36.412Z,3.55
2022-11-17T13:32:16.534Z,4.20
2022-11-17T13:35:01.798Z,3.53
2022-11-17T13:37:29.979Z,3.60
2022-11-17T13:40:03.055Z,3.28
2022-11-17T13:42:33.219Z,3.37
2022-11-17T13:45:03.016Z,3.78
2022-11-17T13:47:39.494Z,3.70
2022-11-17T13:50:24.157Z,3.30
2022-11-17T13:52:54.700Z,3.17
2022-11-17T13:55:24.142Z,3.55
2022-11-17T13:58:24.482Z,3.97
2022-11-17T14:00:56.285Z,4.20
2022-11-17T14:03:37.968Z,3.72
2022-11-17T14:06:07.625Z,3.58
2022-11-17T14:08:36.273Z,3.60
2022-11-17T14:11:12.132Z,3.75
2022-11-17T14:14:01.252Z,3.60
2022-11-17T14:16:38.806Z,3.65
2022-11-17T14:19:26.146Z,3.97
2022-11-17T14:22:31.023Z,5.28
2022-11-17T14:24:58.450Z,6.20
2022-11-17T14:27:31.838Z,5.50
2022-11-17T14:29:58.811Z,4.85
2022-11-17T14:32:25.658Z,5.40
2022-11-17T14:34:52.444Z,4.62
2022-11-17T14:37:19.299Z,5.47
2022-11-17T14:39:46.267Z,5.87
2022-11-17T14:42:13.052Z,6.30
2022-11-17T14:44:39.784Z,6.62
2022-11-17T14:47:06.609Z,6.70
2022-11-17T14:49:33.440Z,6.50
2022-11-17T14:52:00.475Z,6.20
2022-11-17T14:54:27.274Z,6.50
2022-11-17T14:56:54.145Z,6.72
2022-11-17T14:59:20.888Z,6.43
2022-11-17T15:01:47.774Z,8.82
2022-11-17T15:04:48.398Z,9.20
2022-11-17T15:07:03.262Z,8.48
2022-11-17T15:09:31.525Z,12.27
2022-11-17T15:11:58.390Z,12.05
2022-11-17T15:14:25.307Z,7.15
2022-11-17T15:16:52.067Z,7.80
2022-11-17T15:19:19.017Z,9.40
2022-11-17T15:21:45.867Z,10.10
2022-11-17T15:24:13.167Z,8.93
2022-11-17T15:26:40.499Z,7.82
2022-11-17T15:29:07.315Z,8.50
2022-11-17T15:31:34.505Z,9.68
2022-11-17T15:34:01.225Z,12.48
2022-11-17T15:36:28.124Z,16.12
2022-11-17T15:38:56.415Z,24.17
2022-11-17T15:41:23.639Z,15.00
2022-11-17T15:43:51.504Z,14.52
2022-11-17T15:46:18.946Z,18.05
2022-11-17T15:48:47.543Z,17.92
2022-11-17T15:51:16.893Z,16.73
2022-11-17T15:53:45.082Z,16.00
2022-11-17T15:56:19.459Z,17.52
2022-11-17T15:58:47.392Z,17.83
2022-11-17T16:01:28.368Z,18.35
2022-11-17T16:04:04.977Z,18.58
2022-11-17T16:06:33.551Z,17.37
2022-11-17T16:09:01.231Z,17.50
2022-11-17T16:11:28.477Z,17.30
2022-11-17T16:13:59.831Z,17.60
2022-11-17T16:16:31.717Z,18.90
2022-11-17T16:18:59.151Z,18.77
2022-11-17T16:21:26.054Z,13.43
2022-11-17T16:23:55.983Z,11.45
2022-11-17T16:26:25.222Z,13.07
2022-11-17T16:29:06.775Z,14.02
2022-11-17T16:31:35.650Z,12.27
2022-11-17T16:34:05.311Z,11.93
2022-11-17T16:36:36.760Z,12.55
2022-11-17T16:39:06.742Z,12.05
2022-11-17T16:41:41.493Z,11.27
2022-11-17T16:44:11.995Z,12.53
2022-11-17T16:46:42.187Z,12.00
2022-11-17T16:49:11.977Z,16.75
2022-11-17T16:51:39.448Z,17.02
2022-11-17T16:54:10.791Z,17.35
2022-11-17T16:56:37.653Z,16.30
2022-11-17T16:59:05.028Z,17.12
2022-11-17T17:01:34.979Z,17.02
2022-11-17T17:04:04.758Z,16.92
2022-11-17T17:06:32.026Z,17.40
2022-11-17T17:09:01.539Z,19.43
2022-11-17T17:11:31.799Z,17.85
2022-11-17T17:14:03.452Z,18.42
2022-11-17T17:16:32.761Z,18.55
2022-11-17T17:19:01.967Z,18.02
2022-11-17T17:21:30.186Z,19.50
2022-11-17T17:23:58.063Z,18.23
2022-11-17T17:26:27.565Z,17.80
2022-11-17T17:28:57.164Z,23.87
2022-11-17T17:31:26.358Z,29.23
2022-11-17T17:33:55.276Z,30.73
2022-11-17T17:36:24.785Z,28.52
2022-11-17T17:38:56.251Z,32.08
2022-11-17T17:41:29.576Z,34.55
2022-11-17T17:44:02.599Z,39.95
2022-11-17T17:46:31.161Z,34.13
2022-11-17T17:48:58.571Z,30.40
2022-11-17T17:51:27.933Z,33.42
2022-11-17T17:53:58.189Z,32.40
2022-11-17T17:56:25.485Z,33.60
2022-11-17T17:58:55.243Z,32.07
2022-11-17T18:01:24.928Z,30.90
2022-11-17T18:03:54.343Z,26.20
2022-11-17T18:06:22.614Z,25.45
2022-11-17T18:08:50.045Z,24.30
2022-11-17T18:11:20.366Z,26.60
2022-11-17T18:13:49.875Z,23.65
2022-11-17T18:16:18.360Z,21.48
2022-11-17T18:18:47.606Z,20.05
2022-11-17T18:21:17.434Z,22.15
2022-11-17T18:23:44.920Z,21.00
2022-11-17T18:26:18.208Z,20.42
2022-11-17T18:28:51.522Z,20.35
2022-11-17T18:31:19.434Z,18.02
2022-11-17T18:33:50.681Z,15.70
2022-11-17T18:36:17.577Z,16.20
2022-11-17T18:38:44.478Z,15.20
2022-11-17T18:41:14.440Z,15.98
2022-11-17T18:43:43.339Z,17.17
2022-11-17T18:46:13.257Z,17.90
2022-11-17T18:48:42.814Z,18.47
2022-11-17T18:51:20.615Z,17.70
2022-11-17T18:53:52.714Z,19.17
2022-11-17T18:56:25.483Z,16.70
2022-11-17T18:58:53.427Z,16.45
2022-11-17T19:01:24.039Z,18.87
2022-11-17T19:03:53.951Z,16.87
2022-11-17T19:06:23.306Z,15.63
2022-11-17T19:08:51.989Z,15.13
2022-11-17T19:11:21.387Z,14.77
2022-11-17T19:13:49.238Z,15.07
2022-11-17T19:16:18.291Z,16.05
2022-11-17T19:18:47.745Z,14.93
2022-11-17T19:21:17.745Z,15.43
2022-11-17T19:23:51.028Z,15.30
2022-11-17T19:26:24.928Z,15.70
2022-11-17T19:28:57.612Z,15.00
2022-11-17T19:31:26.163Z,15.00
2022-11-17T19:33:54.223Z,15.20
2022-11-17T19:36:29.870Z,15.20
2022-11-17T19:39:00.046Z,14.40
2022-11-17T19:41:32.415Z,15.20
2022-11-17T19:44:01.995Z,16.25
2022-11-17T19:46:30.861Z,16.92
2022-11-17T19:49:00.311Z,16.87
2022-11-17T19:51:37.359Z,16.27
2022-11-17T19:54:07.599Z,16.52
2022-11-17T19:56:35.783Z,16.77
2022-11-17T19:59:04.179Z,17.20
2022-11-17T20:01:32.905Z,18.95
2022-11-17T20:04:02.087Z,20.40
2022-11-17T20:06:36.548Z,18.77
2022-11-17T20:09:12.335Z,19.55
2022-11-17T20:11:40.538Z,20.35
2022-11-17T20:14:08.040Z,20.02
2022-11-17T20:16:37.211Z,22.13
2022-11-17T20:19:05.248Z,22.40
2022-11-17T20:21:32.464Z,21.90
2022-11-17T20:24:00.808Z,22.75
2022-11-17T20:26:30.813Z,23.02
2022-11-17T20:29:07.757Z,22.93
2022-11-17T20:31:36.483Z,23.30
2022-11-17T20:34:05.362Z,22.70
2022-11-17T20:36:35.155Z,23.00
2022-11-17T20:39:04.785Z,22.95
2022-11-17T20:41:32.157Z,24.23
2022-11-17T20:44:01.093Z,23.40
2022-11-17T20:46:28.078Z,23.87
2022-11-17T20:48:55.241Z,21.08
2022-11-17T20:51:25.093Z,20.92
2022-11-17T20:53:52.417Z,21.87
2022-11-17T20:56:19.891Z,20.52
2022-11-17T20:58:48.263Z,19.65
2022-11-17T21:01:18.514Z,19.95
2022-11-17T21:03:46.007Z,21.27
2022-11-17T21:06:14.145Z,21.47
2022-11-17T21:08:42.911Z,20.62
2022-11-17T21:11:32.027Z,21.40
2022-11-17T21:13:59.615Z,21.30
2022-11-17T21:16:26.654Z,22.02
2022-11-17T21:18:53.538Z,20.80
2022-11-17T21:21:20.324Z,21.33
2022-11-17T21:23:47.143Z,22.87
2022-11-17T21:26:17.177Z,22.95
2022-11-17T21:28:44.048Z,21.92
2022-11-17T21:31:14.575Z,20.77
2022-11-17T21:33:42.544Z,22.50
2022-11-17T21:36:11.607Z,21.48
2022-11-17T21:38:39.255Z,23.60
2022-11-17T21:41:13.149Z,24.42
2022-11-17T21:43:41.359Z,36.47
2022-11-17T21:46:11.817Z,27.35
2022-11-17T21:48:39.261Z,23.77
2022-11-17T21:51:12.703Z,22.50
2022-11-17T21:53:39.522Z,22.40
2022-11-17T21:56:07.697Z,21.50
2022-11-17T21:58:34.826Z,21.75
2022-11-17T22:01:10.311Z,20.45
2022-11-17T22:03:37.619Z,21.17
2022-11-17T22:06:09.435Z,20.10
2022-11-17T22:08:38.270Z,20.17
2022-11-17T22:11:07.671Z,22.02
2022-11-17T22:13:35.181Z,21.70
2022-11-17T22:16:08.539Z,21.52
2022-11-17T22:18:35.696Z,22.15
2022-11-17T22:21:02.634Z,21.57
2022-11-17T22:23:29.490Z,20.90
2022-11-17T22:26:00.947Z,20.55
2022-11-17T22:28:27.993Z,20.62
2022-11-17T22:30:55.798Z,19.73
2022-11-17T22:33:23.103Z,20.00
2022-11-17T22:35:50.543Z,21.17
2022-11-17T22:38:17.799Z,20.73
2022-11-17T22:40:44.652Z,20.58
2022-11-17T22:43:14.872Z,20.83
2022-11-17T22:45:41.950Z,20.97
2022-11-17T22:48:09.018Z,19.83
2022-11-17T22:50:36.661Z,19.75
2022-11-17T22:53:03.646Z,20.12
2022-11-17T22:55:32.838Z,19.73
2022-11-17T22:57:59.965Z,20.83
2022-11-17T23:00:26.905Z,19.45
2022-11-17T23:02:53.732Z,19.77
2022-11-17T23:05:20.611Z,18.48
2022-11-17T23:07:47.374Z,20.00
2022-11-17T23:10:14.485Z,19.57
2022-11-17T23:12:41.482Z,19.98
2022-11-17T23:15:08.848Z,18.85
2022-11-17T23:17:35.727Z,19.27
2022-11-17T23:20:02.771Z,19.27
2022-11-17T23:22:29.723Z,18.37
2022-11-17T23:24:56.450Z,18.65
2022-11-17T23:27:23.349Z,18.33
2022-11-17T23:29:50.237Z,19.20
2022-11-17T23:32:17.199Z,19.23
2022-11-17T23:34:44.058Z,18.17
2022-11-17T23:37:11.326Z,18.35
2022-11-17T23:39:38.454Z,17.58
2022-11-17T23:42:05.534Z,19.45
2022-11-17T23:44:32.316Z,17.33
2022-11-17T23:46:59.191Z,18.00
2022-11-17T23:49:26.361Z,18.45
2022-11-17T23:51:53.125Z,18.02
2022-11-17T23:54:19.979Z,18.90
2022-11-17T23:56:48.943Z,18.30
2022-11-17T23:59:16.020Z,18.10
